Time;durP1;ratioP1;P1;durP2;ratioP2;P2;SDS_P1;SDS_P2;PMS_P1;PMS_P2;Temp;Humidity;BMP_temperature;BMP_pressure;BME280_temperature;BME280_humidity;BME280_pressure;Samples;Min_cycle;Max_cycle;Signal;HPM_P1;HPM_P2
2024/04/05 00:00:13;;;;;;;1.27;0.40;;;20.80;46.30;;;;;;5068160;28;20052;-46
2024/04/05 00:02:41;;;;;;;0.43;0.43;;;20.80;46.10;;;;;;5091098;28;20039;-44
2024/04/05 00:05:10;;;;;;;1.35;0.40;;;20.80;46.00;;;;;;5100776;28;20111;-45
2024/04/05 00:07:37;;;;;;;0.50;0.40;;;20.80;46.10;;;;;;5084308;28;20032;-45
2024/04/05 00:10:06;;;;;;;1.02;0.45;;;20.70;46.00;;;;;;5095321;28;20409;-49
2024/04/05 00:12:32;;;;;;;0.55;0.50;;;20.70;46.00;;;;;;5076326;28;20053;-45
2024/04/05 00:14:58;;;;;;;0.55;0.43;;;20.70;46.00;;;;;;5089648;28;20028;-45
2024/04/05 00:17:25;;;;;;;0.60;0.50;;;20.70;46.00;;;;;;5076639;28;20025;-45
2024/04/05 00:19:53;;;;;;;0.43;0.43;;;20.70;46.10;;;;;;5086855;28;20405;-43
2024/04/05 00:22:22;;;;;;;1.23;0.50;;;20.70;46.00;;;;;;5090047;28;20028;-45
2024/04/05 00:24:49;;;;;;;0.60;0.40;;;20.60;46.00;;;;;;5073302;28;20776;-43
2024/04/05 00:27:16;;;;;;;0.50;0.32;;;20.60;45.90;;;;;;5092041;28;20032;-47
2024/04/05 00:29:42;;;;;;;0.40;0.30;;;20.60;45.90;;;;;;5094497;28;20024;-44
2024/04/05 00:32:09;;;;;;;0.73;0.50;;;20.60;46.00;;;;;;5076234;28;20043;-45
2024/04/05 00:34:35;;;;;;;0.30;0.30;;;20.60;46.00;;;;;;5090334;28;20541;-44
2024/04/05 00:37:02;;;;;;;1.50;0.60;;;20.50;45.80;;;;;;5085126;28;20056;-45
2024/04/05 00:39:28;;;;;;;0.40;0.40;;;20.50;45.60;;;;;;5089244;28;20299;-44
2024/04/05 00:41:55;;;;;;;1.10;0.60;;;20.50;45.70;;;;;;5084685;28;20296;-44
2024/04/05 00:44:24;;;;;;;0.70;0.40;;;20.50;45.70;;;;;;5098948;28;20490;-43
2024/04/05 00:46:51;;;;;;;0.40;0.40;;;20.50;45.80;;;;;;5092731;28;20485;-43
2024/04/05 00:49:18;;;;;;;1.02;0.50;;;20.40;45.70;;;;;;5079744;28;20452;-43
2024/04/05 00:51:44;;;;;;;1.38;0.50;;;20.40;45.70;;;;;;5082123;28;20116;-43
2024/04/05 00:54:10;;;;;;;0.90;0.60;;;20.40;45.70;;;;;;5087519;28;20100;-44
2024/04/05 00:56:37;;;;;;;1.55;0.65;;;20.40;45.80;;;;;;5079467;28;20036;-43
2024/04/05 00:59:04;;;;;;;0.60;0.40;;;20.40;45.80;;;;;;5088565;28;20285;-46
2024/04/05 01:01:31;;;;;;;1.20;0.77;;;20.30;45.80;;;;;;5087751;28;20405;-45
2024/04/05 01:03:58;;;;;;;2.92;0.93;;;20.30;45.80;;;;;;5085311;28;20058;-45
2024/04/05 01:06:24;;;;;;;1.55;0.80;;;20.30;45.80;;;;;;5075545;28;20040;-45
2024/04/05 01:08:51;;;;;;;1.63;1.02;;;20.30;45.80;;;;;;5098500;28;20028;-43
2024/04/05 01:11:18;;;;;;;3.63;1.38;;;20.30;45.70;;;;;;5097216;28;20035;-44
2024/04/05 01:13:47;;;;;;;1.83;1.30;;;20.20;45.70;;;;;;5098579;28;20055;-44
2024/04/05 01:16:14;;;;;;;4.18;1.70;;;20.20;45.70;;;;;;5081590;28;20128;-44
2024/04/05 01:18:43;;;;;;;2.53;1.67;;;20.20;45.80;;;;;;5081837;28;20048;-44
2024/04/05 01:21:10;;;;;;;3.05;1.90;;;20.20;45.70;;;;;;5074593;28;20043;-45
2024/04/05 01:23:49;;;;;;;2.70;1.73;;;20.20;45.80;;;;;;5064990;28;20048;-44
2024/04/05 01:26:16;;;;;;;4.60;2.60;;;20.10;45.80;;;;;;5085289;28;20052;-46
2024/04/05 01:28:42;;;;;;;5.32;2.50;;;20.10;45.80;;;;;;5083006;28;20036;-44
2024/04/05 01:31:09;;;;;;;4.30;2.75;;;20.10;45.80;;;;;;5085007;28;20035;-45
2024/04/05 01:33:35;;;;;;;5.47;2.70;;;20.10;45.90;;;;;;5091393;28;20632;-43
2024/04/05 01:36:07;;;;;;;6.30;3.20;;;20.10;45.90;;;;;;5077499;28;20044;-43
2024/04/05 01:38:34;;;;;;;6.43;3.20;;;20.00;45.90;;;;;;5081822;28;20059;-47
2024/04/05 01:41:02;;;;;;;4.70;2.85;;;20.00;45.90;;;;;;5083616;28;20124;-43
2024/04/05 01:43:29;;;;;;;6.15;3.00;;;20.00;46.00;;;;;;5082227;28;20129;-43
2024/04/05 01:45:55;;;;;;;5.40;3.40;;;20.00;46.00;;;;;;5053697;28;20085;-43
2024/04/05 01:48:21;;;;;;;4.80;3.25;;;19.90;46.00;;;;;;5079876;28;20043;-43
2024/04/05 01:50:52;;;;;;;5.67;3.20;;;20.00;46.10;;;;;;5088583;28;20072;-43
2024/04/05 01:53:22;;;;;;;6.15;3.70;;;19.90;46.00;;;;;;5082531;28;20052;-46
2024/04/05 01:55:48;;;;;;;7.53;3.50;;;19.90;46.10;;;;;;5072358;28;20052;-45
2024/04/05 01:58:15;;;;;;;6.97;3.40;;;19.90;46.10;;;;;;5076610;28;20033;-43
2024/04/05 02:00:46;;;;;;;5.53;3.72;;;19.90;46.20;;;;;;5087772;28;20484;-45
2024/04/05 02:03:14;;;;;;;7.65;3.58;;;19.90;46.20;;;;;;5091983;28;20036;-48
2024/04/05 02:05:41;;;;;;;6.97;3.83;;;19.80;46.20;;;;;;5091983;28;20678;-45
2024/04/05 02:08:10;;;;;;;5.72;3.53;;;19.80;46.30;;;;;;5102678;28;20039;-46
2024/04/05 02:10:39;;;;;;;4.82;2.95;;;19.80;46.30;;;;;;5079863;28;20036;-43
2024/04/05 02:13:05;;;;;;;5.95;3.60;;;19.80;46.30;;;;;;5086813;28;20758;-47
2024/04/05 02:15:32;;;;;;;6.25;3.72;;;19.70;46.30;;;;;;5088893;28;20054;-43
2024/04/05 02:17:59;;;;;;;6.03;3.60;;;19.70;46.40;;;;;;5084876;28;20087;-47
2024/04/05 02:20:30;;;;;;;5.20;3.30;;;19.70;46.40;;;;;;5086016;28;20088;-46
2024/04/05 02:22:56;;;;;;;5.45;3.20;;;19.70;46.50;;;;;;5092902;28;20091;-46
2024/04/05 02:25:25;;;;;;;5.07;3.17;;;19.70;46.50;;;;;;5085265;28;20685;-46
2024/04/05 02:27:53;;;;;;;5.40;3.33;;;19.60;46.50;;;;;;5082733;28;20128;-43
2024/04/05 02:30:24;;;;;;;7.85;3.50;;;19.60;46.50;;;;;;5081498;28;20040;-46
2024/04/05 02:32:51;;;;;;;4.38;3.00;;;19.60;46.60;;;;;;5073081;28;20055;-44
2024/04/05 02:35:17;;;;;;;6.63;3.17;;;19.60;46.60;;;;;;5082287;28;20055;-44
2024/04/05 02:37:44;;;;;;;3.85;2.30;;;19.50;46.60;;;;;;5078579;28;20036;-43
2024/04/05 02:40:10;;;;;;;4.00;2.63;;;19.60;47.30;;;;;;5101971;28;20028;-44
2024/04/05 02:42:37;;;;;;;4.17;2.20;;;19.60;47.40;;;;;;5086712;28;20293;-44
2024/04/05 02:45:03;;;;;;;3.85;2.42;;;19.60;47.40;;;;;;5101961;28;20303;-45
2024/04/05 02:47:30;;;;;;;4.32;2.55;;;19.60;47.40;;;;;;5090908;28;20070;-48
2024/04/05 02:49:57;;;;;;;3.17;2.17;;;19.60;47.40;;;;;;5078328;28;20403;-47
2024/04/05 02:52:23;;;;;;;4.13;2.33;;;19.50;47.40;;;;;;5079040;28;20051;-43
2024/04/05 02:54:50;;;;;;;3.47;2.13;;;19.50;47.40;;;;;;5079010;28;20032;-47
2024/04/05 02:57:17;;;;;;;4.43;2.70;;;19.50;47.40;;;;;;5101095;28;20512;-44
2024/04/05 02:59:43;;;;;;;4.85;2.22;;;19.50;47.40;;;;;;5089684;28;20037;-43
2024/04/05 03:02:09;;;;;;;3.38;2.03;;;19.40;47.40;;;;;;5082893;28;20029;-45
2024/04/05 03:04:36;;;;;;;4.03;1.83;;;19.50;47.90;;;;;;5084601;28;20044;-43
2024/04/05 03:07:03;;;;;;;3.30;2.03;;;19.50;48.10;;;;;;5091048;28;20059;-43
2024/04/05 03:09:31;;;;;;;1.83;1.42;;;19.50;48.10;;;;;;5081047;28;20028;-46
2024/04/05 03:11:57;;;;;;;3.03;1.90;;;19.50;48.10;;;;;;5081898;28;20032;-45
2024/04/05 03:14:24;;;;;;;3.78;1.98;;;19.50;48.00;;;;;;5081043;28;20036;-44
2024/04/05 03:16:50;;;;;;;3.03;1.70;;;19.50;48.00;;;;;;5081691;28;20369;-44
2024/04/05 03:19:16;;;;;;;2.10;1.73;;;19.40;48.00;;;;;;5081267;28;20139;-46
2024/04/05 03:21:43;;;;;;;3.25;2.08;;;19.40;47.90;;;;;;5085185;28;20103;-44
2024/04/05 03:24:09;;;;;;;3.60;1.55;;;19.40;47.90;;;;;;5092774;28;20032;-49
2024/04/05 03:26:37;;;;;;;2.08;1.50;;;19.40;48.00;;;;;;5086100;28;20063;-45
2024/04/05 03:29:03;;;;;;;;;;;19.40;48.40;;;;;;5096752;28;20036;-48
2024/04/05 03:31:29;;;;;;;2.25;1.48;;;19.50;48.60;;;;;;5082688;28;19908;-44
2024/04/05 03:33:56;;;;;;;3.50;1.50;;;19.50;48.60;;;;;;5088627;28;20044;-45
2024/04/05 03:36:22;;;;;;;2.65;1.77;;;19.50;48.50;;;;;;5075859;28;20072;-47
2024/04/05 03:38:50;;;;;;;2.20;1.33;;;19.40;48.50;;;;;;5076230;28;20093;-45
2024/04/05 03:41:16;;;;;;;2.25;1.30;;;19.40;48.40;;;;;;5070618;28;20037;-44
2024/04/05 03:43:43;;;;;;;2.08;1.58;;;19.40;48.40;;;;;;5064949;28;20028;-44
2024/04/05 03:46:09;;;;;;;1.70;1.40;;;19.40;48.40;;;;;;5064402;28;20041;-46
2024/04/05 03:48:35;;;;;;;2.20;1.55;;;19.40;48.40;;;;;;5073303;28;20096;-48
2024/04/05 03:51:01;;;;;;;1.65;1.30;;;19.30;48.30;;;;;;5083443;28;20059;-45
2024/04/05 03:53:27;;;;;;;2.90;1.42;;;19.40;48.70;;;;;;5089830;28;20043;-44
2024/04/05 03:55:54;;;;;;;1.42;1.17;;;19.40;48.80;;;;;;5075132;28;20037;-45
2024/04/05 03:58:21;;;;;;;1.42;1.05;;;19.40;48.80;;;;;;5080081;28;20040;-44
2024/04/05 04:00:51;;;;;;;1.95;1.08;;;19.40;48.80;;;;;;5079983;28;20040;-46
2024/04/05 04:03:17;;;;;;;1.42;1.17;;;19.40;48.80;;;;;;5080430;28;20032;-44
2024/04/05 04:05:45;;;;;;;2.03;1.30;;;19.30;48.70;;;;;;5081982;28;20071;-44
2024/04/05 04:08:12;;;;;;;1.98;1.15;;;19.30;48.70;;;;;;5068216;28;20033;-46
2024/04/05 04:10:39;;;;;;;1.40;1.20;;;19.30;48.60;;;;;;5075908;28;20543;-46
2024/04/05 04:13:05;;;;;;;;;;;19.30;48.70;;;;;;5089412;28;20126;-46
2024/04/05 04:15:31;;;;;;;1.48;1.08;;;19.30;48.90;;;;;;5085695;28;19912;-44
2024/04/05 04:17:57;;;;;;;1.67;1.00;;;19.40;49.10;;;;;;5088301;28;20031;-44
2024/04/05 04:20:23;;;;;;;1.35;1.00;;;19.40;49.10;;;;;;5074776;28;20398;-47
2024/04/05 04:22:49;;;;;;;1.67;1.02;;;19.40;49.00;;;;;;5085911;28;20028;-50
2024/04/05 04:25:16;;;;;;;1.50;0.95;;;19.40;49.00;;;;;;5088339;28;20104;-48
2024/04/05 04:27:42;;;;;;;1.20;1.00;;;19.30;48.90;;;;;;5083202;28;20059;-46
2024/04/05 04:30:09;;;;;;;1.08;0.80;;;19.30;48.90;;;;;;5076488;28;20053;-47
2024/04/05 04:32:36;;;;;;;1.08;0.88;;;19.30;48.90;;;;;;5082823;28;20047;-44
2024/04/05 04:35:03;;;;;;;1.63;1.02;;;19.30;49.10;;;;;;5087078;28;20032;-48
2024/04/05 04:37:29;;;;;;;;;;;19.30;49.30;;;;;;5083010;28;20028;-47
2024/04/05 04:39:55;;;;;;;1.25;0.80;;;19.30;49.20;;;;;;5091863;28;20007;-45
2024/04/05 04:42:21;;;;;;;2.05;0.90;;;19.30;49.20;;;;;;5086423;28;20096;-46
2024/04/05 04:44:47;;;;;;;1.75;1.08;;;19.30;49.20;;;;;;5078409;28;20025;-44
2024/04/05 04:47:13;;;;;;;2.20;1.08;;;19.30;49.10;;;;;;5080828;28;20068;-44
2024/04/05 04:49:40;;;;;;;1.98;1.00;;;19.30;49.10;;;;;;5082739;28;20040;-45
2024/04/05 04:52:06;;;;;;;2.13;0.90;;;19.20;49.10;;;;;;5077572;28;20553;-44
2024/04/05 04:54:32;;;;;;;1.20;0.85;;;19.20;49.00;;;;;;5076362;28;20044;-44
2024/04/05 04:56:58;;;;;;;1.17;1.00;;;19.20;49.30;;;;;;5081620;28;20078;-46
2024/04/05 04:59:28;;;;;;;1.52;0.85;;;19.30;49.40;;;;;;5086119;28;20467;-43
2024/04/05 05:01:58;;;;;;;1.50;0.95;;;19.30;49.40;;;;;;5097891;28;20036;-50
2024/04/05 05:04:24;;;;;;;1.33;0.82;;;19.30;49.40;;;;;;5071345;28;20040;-46
2024/04/05 05:06:53;;;;;;;1.00;0.80;;;19.30;49.30;;;;;;5086501;28;20034;-47
2024/04/05 05:09:19;;;;;;;0.98;0.68;;;19.30;49.30;;;;;;5082828;28;20024;-47
2024/04/05 05:11:46;;;;;;;1.17;0.77;;;19.30;49.30;;;;;;5076928;28;20029;-48
2024/04/05 05:14:14;;;;;;;1.05;0.75;;;19.20;49.20;;;;;;5076429;28;20074;-47
2024/04/05 05:16:40;;;;;;;1.67;0.95;;;19.20;49.30;;;;;;5074343;28;20033;-48
2024/04/05 05:19:07;;;;;;;1.33;0.80;;;19.20;49.50;;;;;;5081072;28;20064;-42
2024/04/05 05:21:34;;;;;;;0.90;0.80;;;19.30;49.50;;;;;;5086298;28;20036;-47
2024/04/05 05:24:00;;;;;;;0.70;0.68;;;19.30;49.50;;;;;;5086201;28;20273;-49
2024/04/05 05:26:27;;;;;;;1.40;0.80;;;19.30;49.50;;;;;;5081315;28;20032;-48
2024/04/05 05:28:54;;;;;;;0.63;0.50;;;19.20;49.40;;;;;;5086525;28;20020;-47
2024/04/05 05:31:20;;;;;;;2.03;0.80;;;19.20;49.40;;;;;;5091862;28;20036;-46
2024/04/05 05:33:47;;;;;;;0.90;0.60;;;19.20;49.40;;;;;;5073716;28;20094;-50
2024/04/05 05:36:13;;;;;;;1.50;0.60;;;19.20;49.40;;;;;;5080982;28;20052;-45
2024/04/05 05:38:39;;;;;;;0.60;0.60;;;19.20;49.60;;;;;;5084274;28;20028;-47
2024/04/05 05:41:06;;;;;;;0.82;0.60;;;19.20;49.70;;;;;;5087237;28;20079;-46
2024/04/05 05:43:32;;;;;;;1.00;0.88;;;19.20;49.70;;;;;;5085506;28;20039;-46
2024/04/05 05:45:59;;;;;;;1.20;0.80;;;19.30;49.70;;;;;;5085957;28;20028;-45
2024/04/05 05:48:25;;;;;;;0.82;0.70;;;19.20;49.60;;;;;;5085703;28;20032;-47
2024/04/05 05:50:51;;;;;;;0.95;0.60;;;19.20;49.60;;;;;;5075613;28;20045;-44
2024/04/05 05:53:18;;;;;;;0.60;0.52;;;19.20;49.60;;;;;;5092702;28;20072;-46
2024/04/05 05:55:49;;;;;;;0.82;0.57;;;19.20;49.60;;;;;;5087096;28;20039;-43
2024/04/05 05:58:15;;;;;;;1.02;0.73;;;19.20;49.70;;;;;;5086394;28;20059;-43
2024/04/05 06:00:41;;;;;;;0.63;0.50;;;19.20;49.80;;;;;;5092926;28;20031;-44
2024/04/05 06:03:07;;;;;;;1.52;0.70;;;19.20;49.80;;;;;;5085739;28;20089;-44
2024/04/05 06:05:33;;;;;;;1.05;0.60;;;19.20;49.80;;;;;;5083072;28;20091;-44
2024/04/05 06:08:00;;;;;;;1.15;0.80;;;19.20;49.80;;;;;;5070171;28;20027;-44
2024/04/05 06:10:26;;;;;;;1.10;0.60;;;19.20;49.80;;;;;;5083391;28;20036;-46
2024/04/05 06:12:53;;;;;;;1.13;0.80;;;19.20;49.80;;;;;;5076643;28;20024;-45
2024/04/05 06:15:19;;;;;;;1.05;0.60;;;19.10;49.70;;;;;;5087698;28;20063;-46
2024/04/05 06:17:48;;;;;;;0.70;0.50;;;19.20;49.90;;;;;;5078677;28;20028;-47
2024/04/05 06:20:17;;;;;;;1.00;0.60;;;19.20;50.00;;;;;;5095932;28;20036;-44
2024/04/05 06:22:43;;;;;;;0.70;0.60;;;19.20;50.00;;;;;;5076954;28;20032;-45
2024/04/05 06:25:10;;;;;;;0.98;0.60;;;19.20;50.00;;;;;;5079609;28;20044;-48
2024/04/05 06:27:36;;;;;;;0.90;0.70;;;19.20;49.90;;;;;;5092764;28;20040;-46
2024/04/05 06:30:03;;;;;;;0.68;0.60;;;19.20;49.90;;;;;;5087760;28;20040;-44
2024/04/05 06:32:30;;;;;;;0.60;0.60;;;19.10;49.80;;;;;;5095626;28;20085;-44
2024/04/05 06:34:56;;;;;;;0.80;0.60;;;19.10;49.80;;;;;;5080908;28;20040;-44
2024/04/05 06:37:23;;;;;;;0.40;0.40;;;19.10;50.00;;;;;;5086778;28;20061;-44
2024/04/05 06:39:52;;;;;;;0.93;0.80;;;19.20;50.10;;;;;;5081212;28;20054;-46
2024/04/05 06:42:19;;;;;;;0.60;0.50;;;19.20;50.10;;;;;;5077708;28;20025;-44
2024/04/05 06:44:45;;;;;;;0.40;0.40;;;19.20;50.10;;;;;;5080045;28;20030;-44
2024/04/05 06:47:12;;;;;;;0.55;0.50;;;19.20;50.10;;;;;;5085601;28;20480;-45
2024/04/05 06:49:38;;;;;;;0.60;0.50;;;19.10;50.00;;;;;;5078787;28;20044;-44
2024/04/05 06:52:08;;;;;;;0.80;0.50;;;19.10;50.00;;;;;;5091448;28;20064;-48
2024/04/05 06:54:34;;;;;;;0.77;0.50;;;19.10;50.00;;;;;;5085753;28;20400;-46
2024/04/05 06:57:03;;;;;;;0.70;0.60;;;19.10;50.10;;;;;;5078582;28;20021;-45
2024/04/05 06:59:32;;;;;;;0.68;0.50;;;19.20;50.20;;;;;;5075867;28;20392;-44
2024/04/05 07:01:58;;;;;;;0.95;0.57;;;19.20;50.20;;;;;;5076426;28;20028;-45
2024/04/05 07:04:26;;;;;;;0.40;0.40;;;19.20;50.20;;;;;;5090575;28;20056;-45
2024/04/05 07:06:52;;;;;;;0.63;0.57;;;19.10;50.10;;;;;;5083070;28;20031;-44
2024/04/05 07:09:22;;;;;;;0.88;0.63;;;19.10;50.10;;;;;;5082055;28;20114;-45
2024/04/05 07:11:50;;;;;;;0.60;0.45;;;19.10;50.10;;;;;;5075115;28;20451;-44
2024/04/05 07:14:19;;;;;;;0.88;0.65;;;19.10;50.20;;;;;;5081337;28;20074;-44
2024/04/05 07:16:48;;;;;;;0.60;0.57;;;19.20;50.30;;;;;;5082442;28;20021;-45
2024/04/05 07:19:17;;;;;;;0.50;0.40;;;19.20;50.30;;;;;;5083871;28;20187;-46
2024/04/05 07:21:47;;;;;;;0.47;0.40;;;19.20;50.30;;;;;;5098676;28;20088;-45
2024/04/05 07:24:13;;;;;;;0.45;0.45;;;19.10;50.20;;;;;;5081279;28;20034;-44
2024/04/05 07:26:40;;;;;;;0.83;0.60;;;19.10;50.20;;;;;;5070430;28;20020;-48
2024/04/05 07:29:06;;;;;;;0.70;0.57;;;19.10;50.10;;;;;;5089077;28;20289;-45
2024/04/05 07:31:38;;;;;;;0.65;0.60;;;19.00;50.10;;;;;;5091397;28;20053;-45
2024/04/05 07:34:05;;;;;;;0.77;0.60;;;19.10;50.30;;;;;;5083635;28;20048;-47
2024/04/05 07:36:31;;;;;;;0.73;0.43;;;19.10;50.30;;;;;;5089902;28;20570;-44
2024/04/05 07:38:58;;;;;;;1.40;0.63;;;19.20;50.30;;;;;;5095421;28;20038;-45
2024/04/05 07:41:24;;;;;;;0.57;0.50;;;19.20;50.40;;;;;;5090824;28;20071;-44
2024/04/05 07:43:50;;;;;;;0.50;0.50;;;19.10;50.20;;;;;;5087235;28;20088;-46
2024/04/05 07:46:17;;;;;;;0.60;0.40;;;19.10;50.20;;;;;;5085355;28;20558;-45
2024/04/05 07:48:43;;;;;;;0.65;0.60;;;19.10;50.20;;;;;;5086517;28;20115;-44
2024/04/05 07:51:10;;;;;;;0.55;0.45;;;19.00;50.20;;;;;;5087886;28;20037;-45
2024/04/05 07:53:36;;;;;;;1.00;0.70;;;19.10;50.50;;;;;;5085626;28;20036;-47
2024/04/05 07:56:06;;;;;;;0.65;0.50;;;19.10;50.40;;;;;;5085015;28;20099;-44
2024/04/05 07:58:32;;;;;;;0.80;0.50;;;19.10;50.30;;;;;;5072822;28;20063;-46
2024/04/05 08:00:58;;;;;;;0.70;0.55;;;19.10;50.40;;;;;;5063530;28;20093;-45
2024/04/05 08:03:24;;;;;;;0.68;0.50;;;19.10;50.30;;;;;;5087773;28;20126;-45
2024/04/05 08:05:50;;;;;;;3.60;0.75;;;19.00;50.30;;;;;;5093746;28;20023;-48
2024/04/05 08:08:16;;;;;;;1.33;0.43;;;19.00;50.30;;;;;;5085722;28;20114;-45
2024/04/05 08:10:42;;;;;;;0.70;0.45;;;19.00;50.40;;;;;;5071366;28;20108;-46
2024/04/05 08:13:09;;;;;;;0.50;0.50;;;19.10;50.50;;;;;;5073584;28;20041;-46
2024/04/05 08:15:36;;;;;;;1.10;0.52;;;19.10;50.50;;;;;;5064652;28;20059;-45
2024/04/05 08:18:02;;;;;;;0.57;0.47;;;19.10;50.50;;;;;;5083830;28;20047;-48
2024/04/05 08:20:28;;;;;;;0.63;0.45;;;19.10;50.50;;;;;;5081268;28;20090;-49
2024/04/05 08:22:54;;;;;;;0.65;0.50;;;19.00;50.40;;;;;;5094443;28;20029;-44
2024/04/05 08:25:21;;;;;;;0.88;0.57;;;19.00;50.40;;;;;;5083305;28;20032;-48
2024/04/05 08:27:47;;;;;;;0.60;0.50;;;19.00;50.40;;;;;;5089767;28;20039;-46
2024/04/05 08:30:14;;;;;;;0.60;0.60;;;19.00;50.50;;;;;;5089874;28;20078;-48
2024/04/05 08:32:41;;;;;;;;;;;19.10;50.60;;;;;;5078267;28;20035;-49
2024/04/05 08:35:09;;;;;;;0.60;0.40;;;19.10;50.60;;;;;;5086431;28;19916;-47
2024/04/05 08:37:36;;;;;;;0.60;0.40;;;19.10;51.10;;;;;;5084668;28;20039;-48
2024/04/05 08:40:03;;;;;;;0.93;0.50;;;19.00;50.50;;;;;;5085277;28;20076;-45
2024/04/05 08:42:31;;;;;;;0.88;0.50;;;19.00;50.50;;;;;;5090072;28;20032;-47
2024/04/05 08:44:58;;;;;;;0.60;0.43;;;19.00;50.50;;;;;;5094237;28;20411;-47
2024/04/05 08:47:25;;;;;;;0.55;0.40;;;19.00;50.60;;;;;;5078781;28;20037;-45
2024/04/05 08:49:51;;;;;;;0.68;0.57;;;19.00;50.70;;;;;;5082296;28;20059;-49
2024/04/05 08:52:18;;;;;;;0.77;0.50;;;19.10;50.70;;;;;;5093303;28;20036;-45
2024/04/05 08:54:44;;;;;;;0.73;0.57;;;19.00;50.60;;;;;;5096657;28;20040;-46
2024/04/05 08:57:10;;;;;;;0.85;0.50;;;19.00;50.60;;;;;;5093011;28;20032;-47
2024/04/05 08:59:37;;;;;;;0.45;0.45;;;19.00;50.60;;;;;;5101540;28;20040;-44
2024/04/05 09:02:03;;;;;;;0.50;0.47;;;19.00;50.60;;;;;;5096601;28;20025;-45
2024/04/05 09:04:30;;;;;;;0.50;0.50;;;18.90;50.50;;;;;;5094451;28;20362;-45
2024/04/05 09:06:56;;;;;;;0.50;0.40;;;19.00;50.80;;;;;;5093386;28;20028;-47
2024/04/05 09:09:29;;;;;;;0.70;0.47;;;19.00;50.80;;;;;;5092272;28;20076;-48
2024/04/05 09:12:10;;;;;;;0.68;0.45;;;19.00;50.70;;;;;;5079124;28;20032;-48
2024/04/05 09:14:37;;;;;;;0.77;0.50;;;19.00;50.70;;;;;;5099698;28;20064;-50
2024/04/05 09:17:16;;;;;;;0.63;0.47;;;19.00;50.70;;;;;;5084013;28;20021;-45
2024/04/05 09:19:42;;;;;;;1.15;0.60;;;19.00;50.70;;;;;;5084706;28;20028;-46
2024/04/05 09:22:17;;;;;;;0.98;0.50;;;18.90;50.60;;;;;;5089990;28;20033;-47
2024/04/05 09:24:45;;;;;;;0.90;0.60;;;18.90;50.70;;;;;;5087685;28;20025;-46
2024/04/05 09:27:11;;;;;;;;;;;19.00;50.90;;;;;;5089954;28;20036;-48
2024/04/05 09:29:37;;;;;;;0.65;0.40;;;19.00;50.80;;;;;;5091964;28;19920;-47
2024/04/05 09:32:03;;;;;;;0.63;0.45;;;19.00;50.80;;;;;;5098034;28;20020;-44
2024/04/05 09:34:30;;;;;;;1.27;0.40;;;19.00;50.80;;;;;;5086367;28;20036;-47
2024/04/05 09:36:58;;;;;;;0.40;0.40;;;19.00;50.80;;;;;;5102524;28;20049;-47
2024/04/05 09:39:24;;;;;;;0.82;0.35;;;19.00;50.80;;;;;;5082300;28;20354;-46
2024/04/05 09:41:52;;;;;;;0.38;0.35;;;18.90;50.70;;;;;;5081251;28;20027;-48
2024/04/05 09:44:18;;;;;;;;;;;18.90;50.90;;;;;;5095834;28;20036;-45
2024/04/05 09:46:44;;;;;;;1.13;0.40;;;19.00;51.00;;;;;;5091081;28;19913;-46
2024/04/05 09:49:14;;;;;;;0.50;0.45;;;19.00;50.90;;;;;;5079203;28;20076;-47
2024/04/05 09:51:44;;;;;;;0.52;0.50;;;19.00;50.90;;;;;;5080519;28;20024;-47
2024/04/05 09:54:15;;;;;;;0.40;0.40;;;19.00;50.90;;;;;;5078955;28;20048;-48
2024/04/05 09:56:43;;;;;;;0.63;0.50;;;18.90;50.80;;;;;;5085447;28;20024;-45
2024/04/05 09:59:17;;;;;;;0.52;0.43;;;18.90;50.80;;;;;;5096734;28;20118;-47
2024/04/05 10:01:46;;;;;;;0.40;0.30;;;18.90;50.90;;;;;;5075122;28;20133;-45
2024/04/05 10:04:13;;;;;;;0.50;0.40;;;19.00;51.00;;;;;;5081873;28;20032;-44
2024/04/05 10:06:40;;;;;;;0.40;0.38;;;19.00;51.00;;;;;;5074670;28;20077;-45
2024/04/05 10:09:20;;;;;;;0.38;0.38;;;19.00;51.00;;;;;;5086866;28;20036;-47
2024/04/05 10:11:52;;;;;;;0.60;0.40;;;19.00;51.00;;;;;;5087065;28;20032;-45
2024/04/05 10:14:31;;;;;;;0.70;0.30;;;18.90;50.90;;;;;;5095663;28;20044;-45
2024/04/05 10:17:11;;;;;;;0.45;0.45;;;18.90;50.90;;;;;;5077901;28;20024;-45
2024/04/05 10:19:38;;;;;;;0.63;0.40;;;18.90;51.10;;;;;;5092639;28;20488;-47
2024/04/05 10:22:24;;;;;;;0.88;0.47;;;19.00;51.10;;;;;;5043428;28;20045;-45
2024/04/05 10:24:50;;;;;;;0.70;0.40;;;19.00;51.00;;;;;;5044731;28;20025;-48
2024/04/05 10:27:22;;;;;;;0.40;0.40;;;19.00;51.00;;;;;;5053043;28;20045;-46
2024/04/05 10:30:02;;;;;;;0.50;0.30;;;18.90;51.00;;;;;;5039652;28;20028;-45
2024/04/05 10:32:29;;;;;;;0.55;0.40;;;18.90;51.00;;;;;;5056288;28;20037;-47
2024/04/05 10:35:08;;;;;;;0.50;0.50;;;18.90;51.00;;;;;;5035653;28;20048;-47
2024/04/05 10:37:38;;;;;;;0.50;0.38;;;18.90;51.10;;;;;;5026261;28;20080;-47
2024/04/05 10:40:12;;;;;;;0.90;0.68;;;18.90;51.10;;;;;;5047712;28;20494;-49
2024/04/05 10:42:39;;;;;;;0.65;0.40;;;19.00;51.10;;;;;;5050073;28;20093;-44
2024/04/05 10:45:06;;;;;;;;;;;19.00;51.10;;;;;;5035809;28;20122;-46
2024/04/05 10:47:35;;;;;;;0.88;0.43;;;18.90;51.00;;;;;;5043626;28;19925;-49
2024/04/05 10:50:08;;;;;;;0.30;0.30;;;18.90;51.00;;;;;;5048101;28;20052;-48
2024/04/05 10:52:36;;;;;;;0.30;0.30;;;18.90;51.00;;;;;;5048298;28;20616;-46
2024/04/05 10:55:14;;;;;;;0.50;0.40;;;18.90;51.20;;;;;;5053589;28;20042;-49
2024/04/05 10:57:41;;;;;;;0.32;0.30;;;18.90;51.20;;;;;;5025372;28;20128;-44
2024/04/05 11:00:11;;;;;;;0.50;0.50;;;19.00;51.20;;;;;;5085668;28;20040;-46
2024/04/05 11:02:40;;;;;;;0.40;0.40;;;18.90;51.10;;;;;;5072243;28;20045;-44
2024/04/05 11:05:15;;;;;;;0.88;0.30;;;18.90;51.10;;;;;;5075756;28;20068;-44
2024/04/05 11:07:42;;;;;;;0.32;0.30;;;18.90;51.10;;;;;;5073878;28;20030;-45
2024/04/05 11:10:18;;;;;;;1.05;0.32;;;18.90;51.10;;;;;;5094846;28;20032;-46
2024/04/05 11:12:45;;;;;;;0.30;0.30;;;18.80;51.10;;;;;;5079013;28;20037;-45
2024/04/05 11:15:11;;;;;;;0.80;0.50;;;18.90;51.20;;;;;;5082064;28;20078;-45
2024/04/05 11:17:38;;;;;;;0.40;0.40;;;18.90;51.20;;;;;;5082457;28;20456;-47
2024/04/05 11:20:09;;;;;;;0.40;0.30;;;18.90;51.10;;;;;;5089234;28;20136;-44
2024/04/05 11:22:36;;;;;;;0.40;0.40;;;18.90;51.10;;;;;;5092466;28;20043;-44
2024/04/05 11:25:02;;;;;;;;;;;18.90;51.10;;;;;;5091391;28;20028;-50
2024/04/05 11:27:32;;;;;;;0.68;0.38;;;18.90;51.10;;;;;;5082917;28;19912;-45
2024/04/05 11:29:58;;;;;;;0.30;0.25;;;18.80;51.10;;;;;;5096834;28;20020;-44
2024/04/05 11:32:33;;;;;;;0.40;0.30;;;18.90;51.20;;;;;;5090624;28;20121;-45
2024/04/05 11:35:02;;;;;;;0.50;0.30;;;18.90;51.20;;;;;;5082304;28;20537;-45
2024/04/05 11:37:29;;;;;;;0.40;0.30;;;18.90;51.20;;;;;;5086838;28;20162;-44
2024/04/05 11:39:58;;;;;;;0.43;0.32;;;18.90;51.10;;;;;;5080765;28;20796;-45
2024/04/05 11:42:25;;;;;;;0.70;0.30;;;18.90;51.10;;;;;;5080440;28;20035;-46
2024/04/05 11:44:51;;;;;;;0.30;0.20;;;18.80;51.10;;;;;;5074534;28;20032;-47
2024/04/05 11:47:21;;;;;;;0.65;0.30;;;18.80;51.20;;;;;;5097789;28;20595;-46
2024/04/05 11:49:52;;;;;;;0.30;0.30;;;18.90;51.20;;;;;;5085186;28;20076;-44
2024/04/05 11:52:18;;;;;;;1.05;0.38;;;18.90;51.20;;;;;;5082804;28;20040;-44
2024/04/05 11:54:46;;;;;;;0.30;0.30;;;18.90;51.10;;;;;;5097121;28;20121;-46
2024/04/05 11:57:15;;;;;;;1.75;0.35;;;18.90;51.20;;;;;;5081709;28;20048;-47
2024/04/05 11:59:42;;;;;;;0.22;0.20;;;18.90;51.20;;;;;;5076114;28;20028;-46
2024/04/05 12:02:08;;;;;;;0.65;0.30;;;18.80;51.10;;;;;;5100469;28;20036;-44
2024/04/05 12:04:35;;;;;;;0.20;0.20;;;18.80;51.20;;;;;;5100122;28;20042;-47
2024/04/05 12:07:01;;;;;;;0.20;0.20;;;18.90;51.30;;;;;;5098981;28;20032;-44
2024/04/05 12:09:28;;;;;;;0.30;0.30;;;18.90;51.20;;;;;;5073405;28;20040;-46
2024/04/05 12:11:54;;;;;;;1.20;0.40;;;18.90;51.20;;;;;;5082129;28;20025;-44
2024/04/05 12:14:20;;;;;;;1.45;0.30;;;18.90;51.20;;;;;;5088977;28;20037;-46
2024/04/05 12:16:46;;;;;;;0.30;0.30;;;18.80;51.20;;;;;;5083006;28;20024;-47
2024/04/05 12:19:13;;;;;;;0.40;0.30;;;18.80;51.10;;;;;;5089777;28;20043;-46
2024/04/05 12:21:40;;;;;;;0.60;0.35;;;18.80;51.80;;;;;;5079662;28;20026;-45
2024/04/05 12:24:06;;;;;;;0.40;0.40;;;18.90;51.30;;;;;;5063925;28;20048;-45
2024/04/05 12:26:33;;;;;;;0.30;0.20;;;18.90;51.20;;;;;;5064794;28;20037;-45
2024/04/05 12:28:59;;;;;;;0.30;0.30;;;18.90;51.20;;;;;;5076608;28;20050;-44
2024/04/05 12:31:28;;;;;;;0.68;0.30;;;18.90;51.20;;;;;;5083931;28;20048;-44
2024/04/05 12:33:54;;;;;;;0.40;0.40;;;18.80;51.20;;;;;;5071315;28;20048;-44
2024/04/05 12:36:20;;;;;;;0.32;0.30;;;18.80;51.10;;;;;;5080789;28;20434;-43
2024/04/05 12:38:46;;;;;;;0.40;0.35;;;18.80;51.20;;;;;;5081725;28;20114;-44
2024/04/05 12:41:17;;;;;;;0.30;0.30;;;18.90;51.20;;;;;;5086657;28;20170;-46
2024/04/05 12:43:43;;;;;;;0.20;0.20;;;18.90;51.20;;;;;;5094413;28;20101;-45
2024/04/05 12:46:09;;;;;;;0.30;0.30;;;18.90;51.10;;;;;;5079078;28;20096;-44
2024/04/05 12:48:36;;;;;;;0.20;0.20;;;18.90;51.10;;;;;;5083091;28;20055;-46